createdAt,value
2017-03-07T00:00:18.869Z,1002.21
2017-03-07T00:01:01.638Z,1002.28
2017-03-07T00:01:43.916Z,1002.26
2017-03-07T00:02:26.804Z,1002.27
2017-03-07T00:03:09.355Z,1002.31
2017-03-07T00:05:24.906Z,1002.35
2017-03-07T00:06:07.159Z,1002.34
2017-03-07T00:06:49.716Z,1002.34
2017-03-07T00:07:32.346Z,1002.37
2017-03-07T00:08:14.556Z,1002.36
2017-03-07T00:08:57.353Z,1002.34
2017-03-07T00:09:39.747Z,1002.38
2017-03-07T00:10:22.503Z,1002.35
2017-03-07T00:12:23.345Z,1002.38
2017-03-07T00:13:05.740Z,1002.44
2017-03-07T00:13:48.296Z,1002.45
2017-03-07T00:14:30.847Z,1002.45
2017-03-07T00:15:13.140Z,1002.49
2017-03-07T00:15:55.699Z,1002.49
2017-03-07T00:16:38.216Z,1002.48
2017-03-07T00:17:21.044Z,1002.52
2017-03-07T00:18:03.883Z,1002.55
2017-03-07T00:18:45.729Z,1002.54
2017-03-07T00:19:28.484Z,1002.54
2017-03-07T00:20:10.826Z,1002.55
2017-03-07T00:20:53.368Z,1002.53
2017-03-07T00:21:36.113Z,1002.55
2017-03-07T00:23:36.667Z,1002.58
2017-03-07T00:24:19.520Z,1002.56
2017-03-07T00:25:00.388Z,1002.56
2017-03-07T00:25:40.922Z,1002.57
2017-03-07T00:26:23.798Z,1002.59
2017-03-07T00:28:18.553Z,1002.6
2017-03-07T00:29:00.831Z,1002.6
2017-03-07T00:29:43.278Z,1002.6
2017-03-07T00:30:25.781Z,1002.61
2017-03-07T00:32:26.489Z,1002.64
2017-03-07T00:33:09.110Z,1002.68
2017-03-07T00:33:51.653Z,1002.66
2017-03-07T00:34:34.009Z,1002.66
2017-03-07T00:35:16.978Z,1002.7
2017-03-07T00:35:59.003Z,1002.69
2017-03-07T00:36:41.177Z,1002.69
2017-03-07T00:37:23.668Z,1002.73
2017-03-07T00:38:05.997Z,1002.72
2017-03-07T00:38:48.403Z,1002.71
2017-03-07T00:39:30.598Z,1002.75
2017-03-07T00:40:13.039Z,1002.69
2017-03-07T00:40:55.637Z,1002.69
2017-03-07T00:41:38.334Z,1002.75
2017-03-07T00:43:33.420Z,1002.78
2017-03-07T00:44:15.565Z,1002.77
2017-03-07T00:44:58.152Z,1002.73
2017-03-07T00:45:40.854Z,1002.77
2017-03-07T00:46:24.391Z,1002.79
2017-03-07T00:47:06.257Z,1002.82
2017-03-07T00:47:49.015Z,1002.82
2017-03-07T00:49:49.821Z,1002.77
2017-03-07T00:50:32.046Z,1002.79
2017-03-07T00:51:14.511Z,1002.82
2017-03-07T00:51:57.209Z,1002.83
2017-03-07T00:54:13.704Z,1002.84
2017-03-07T00:54:56.313Z,1002.86
2017-03-07T00:56:51.579Z,1002.89
2017-03-07T00:57:33.789Z,1002.86
2017-03-07T00:58:16.126Z,1002.92
2017-03-07T00:58:58.337Z,1002.93
2017-03-07T01:00:53.585Z,1002.98
2017-03-07T01:01:35.348Z,1002.96
2017-03-07T01:02:18.047Z,1002.98
2017-03-07T01:03:00.413Z,1002.99
2017-03-07T01:03:43.093Z,1002.95
2017-03-07T01:04:25.305Z,1002.96
2017-03-07T01:06:20.572Z,1003.04
2017-03-07T01:07:02.960Z,1003
2017-03-07T01:07:45.675Z,1003.05
2017-03-07T01:08:28.109Z,1003.08
2017-03-07T01:09:10.719Z,1003.02
2017-03-07T01:09:53.395Z,1003.02
2017-03-07T01:10:35.953Z,1003.06
2017-03-07T01:11:18.111Z,1003.03
2017-03-07T01:13:34.683Z,1003.06
2017-03-07T01:14:17.388Z,1003.11
2017-03-07T01:16:33.523Z,1003.09
2017-03-07T01:17:16.094Z,1003.15
2017-03-07T01:19:11.208Z,1003.13
2017-03-07T01:19:53.851Z,1003.2
2017-03-07T01:20:36.281Z,1003.17
2017-03-07T01:21:19.065Z,1003.23
2017-03-07T01:22:01.887Z,1003.21
2017-03-07T01:22:44.735Z,1003.21
2017-03-07T01:23:27.186Z,1003.23
2017-03-07T01:25:49.700Z,1003.24
2017-03-07T01:28:21.547Z,1003.27
2017-03-07T01:29:04.290Z,1003.27
2017-03-07T01:29:47.138Z,1003.27
2017-03-07T01:30:29.773Z,1003.3
2017-03-07T01:31:12.626Z,1003.23
2017-03-07T01:31:55.080Z,1003.29
2017-03-07T01:32:37.448Z,1003.31
2017-03-07T01:34:32.845Z,1003.32
2017-03-07T01:35:15.680Z,1003.3
2017-03-07T01:37:32.072Z,1003.31
2017-03-07T01:38:14.757Z,1003.34
2017-03-07T01:40:36.504Z,1003.37
2017-03-07T01:41:18.952Z,1003.37
2017-03-07T01:43:51.116Z,1003.41
2017-03-07T01:44:33.275Z,1003.41
2017-03-07T01:46:34.166Z,1003.43
2017-03-07T01:47:16.479Z,1003.47
2017-03-07T01:47:58.914Z,1003.46
2017-03-07T01:48:41.401Z,1003.48
2017-03-07T01:50:42.119Z,1003.48
2017-03-07T01:52:42.552Z,1003.53
2017-03-07T01:53:24.791Z,1003.48
2017-03-07T01:54:07.490Z,1003.52
2017-03-07T01:54:49.549Z,1003.5
2017-03-07T01:55:32.234Z,1003.46
2017-03-07T01:56:14.977Z,1003.48
2017-03-07T01:56:57.528Z,1003.48
2017-03-07T01:57:40.265Z,1003.46
2017-03-07T01:58:22.670Z,1003.49
2017-03-07T01:59:05.565Z,1003.52
2017-03-07T01:59:47.889Z,1003.52
2017-03-07T02:01:47.487Z,1003.57
2017-03-07T02:02:28.005Z,1003.55
2017-03-07T02:03:08.530Z,1003.55
2017-03-07T02:03:49.055Z,1003.57
2017-03-07T02:04:29.588Z,1003.56
2017-03-07T02:05:10.112Z,1003.56
2017-03-07T02:05:50.647Z,1003.58
2017-03-07T02:06:31.178Z,1003.53
2017-03-07T02:07:11.707Z,1003.55
2017-03-07T02:07:52.236Z,1003.52
2017-03-07T02:08:32.764Z,1003.57
2017-03-07T02:09:13.301Z,1003.57
2017-03-07T02:09:53.829Z,1003.57
2017-03-07T02:10:34.354Z,1003.57
2017-03-07T02:11:14.886Z,1003.58
2017-03-07T02:11:55.409Z,1003.62
2017-03-07T02:12:35.944Z,1003.63
2017-03-07T02:13:16.473Z,1003.6
2017-03-07T02:13:57.006Z,1003.63
2017-03-07T02:14:37.536Z,1003.63
2017-03-07T02:15:18.065Z,1003.63
2017-03-07T02:15:58.590Z,1003.62
2017-03-07T02:16:39.132Z,1003.6
2017-03-07T02:17:19.666Z,1003.61
2017-03-07T02:18:00.196Z,1003.61
2017-03-07T02:18:40.720Z,1003.65
2017-03-07T02:19:21.248Z,1003.64
2017-03-07T02:20:01.785Z,1003.65
2017-03-07T02:20:42.316Z,1003.67
2017-03-07T02:21:22.842Z,1003.66
2017-03-07T02:22:03.370Z,1003.69
2017-03-07T02:22:43.900Z,1003.67
2017-03-07T02:23:24.429Z,1003.68
2017-03-07T02:24:04.971Z,1003.67
2017-03-07T02:24:45.509Z,1003.71
2017-03-07T02:25:26.042Z,1003.74
2017-03-07T02:26:06.572Z,1003.75
2017-03-07T02:26:47.168Z,1003.72
2017-03-07T02:27:27.702Z,1003.76
2017-03-07T02:28:08.228Z,1003.74
2017-03-07T02:28:48.765Z,1003.74
2017-03-07T02:29:29.296Z,1003.74
2017-03-07T02:30:09.826Z,1003.79
2017-03-07T02:30:50.356Z,1003.81
2017-03-07T02:31:30.879Z,1003.77
2017-03-07T02:32:11.413Z,1003.79
2017-03-07T02:32:51.946Z,1003.79
2017-03-07T02:33:32.480Z,1003.83
2017-03-07T02:34:13.017Z,1003.79
2017-03-07T02:34:53.551Z,1003.77
2017-03-07T02:35:34.081Z,1003.77
2017-03-07T02:36:14.612Z,1003.83
2017-03-07T02:36:55.146Z,1003.8
2017-03-07T02:37:35.680Z,1003.8
2017-03-07T02:38:16.211Z,1003.78
2017-03-07T02:38:56.740Z,1003.8
2017-03-07T02:39:37.275Z,1003.81
2017-03-07T02:40:17.805Z,1003.79
2017-03-07T02:40:58.337Z,1003.8
2017-03-07T02:41:38.870Z,1003.8
2017-03-07T02:42:19.401Z,1003.8
2017-03-07T02:42:59.927Z,1003.81
2017-03-07T02:43:40.459Z,1003.82
2017-03-07T02:44:20.993Z,1003.8
2017-03-07T02:45:01.523Z,1003.77
2017-03-07T02:45:42.057Z,1003.78
2017-03-07T02:46:22.584Z,1003.8
2017-03-07T02:47:03.117Z,1003.88
2017-03-07T02:47:43.628Z,1003.81
2017-03-07T02:48:24.150Z,1003.82
2017-03-07T02:49:04.680Z,1003.79
2017-03-07T02:49:45.211Z,1003.82
2017-03-07T02:50:25.740Z,1003.8
2017-03-07T02:51:06.277Z,1003.85
2017-03-07T02:51:46.796Z,1003.84
2017-03-07T02:52:27.377Z,1003.87
2017-03-07T02:53:07.909Z,1003.89
2017-03-07T02:53:48.456Z,1003.87
2017-03-07T02:54:28.954Z,1003.87
2017-03-07T02:55:09.486Z,1003.89
2017-03-07T02:55:50.020Z,1003.88
2017-03-07T02:56:30.543Z,1003.88
2017-03-07T02:57:11.073Z,1003.89
2017-03-07T02:57:51.602Z,1003.9
2017-03-07T02:58:32.135Z,1003.89
2017-03-07T02:59:12.653Z,1003.93
2017-03-07T02:59:53.177Z,1003.91
2017-03-07T03:00:33.711Z,1003.95
2017-03-07T03:01:14.245Z,1003.89
2017-03-07T03:01:54.776Z,1003.93
2017-03-07T03:02:35.306Z,1003.97
2017-03-07T03:03:15.851Z,1003.93
2017-03-07T03:03:56.362Z,1003.99
2017-03-07T03:04:36.893Z,1003.96
2017-03-07T03:05:17.425Z,1003.93
2017-03-07T03:05:57.952Z,1003.99
2017-03-07T03:06:38.487Z,1003.98
2017-03-07T03:07:19.017Z,1003.97
2017-03-07T03:07:59.552Z,1003.97
2017-03-07T03:08:40.086Z,1003.96
2017-03-07T03:09:20.625Z,1003.97
2017-03-07T03:10:01.154Z,1004.03
2017-03-07T03:10:41.688Z,1004.01
2017-03-07T03:11:22.216Z,1004.04
2017-03-07T03:12:02.748Z,1004.04
2017-03-07T03:12:43.283Z,1004.03
2017-03-07T03:13:23.817Z,1004.02
2017-03-07T03:14:04.350Z,1004.06
2017-03-07T03:14:44.878Z,1004.04
2017-03-07T03:15:25.417Z,1004.05
2017-03-07T03:16:05.947Z,1004.11
2017-03-07T03:16:46.477Z,1004.1
2017-03-07T03:17:27.009Z,1004.06
2017-03-07T03:18:07.537Z,1004.1
2017-03-07T03:18:48.071Z,1004.11
2017-03-07T03:19:28.600Z,1004.07
2017-03-07T03:20:09.135Z,1004.12
2017-03-07T03:20:49.661Z,1004.12
2017-03-07T03:21:30.194Z,1004.09
2017-03-07T03:22:10.724Z,1004.1
2017-03-07T03:22:51.292Z,1004.06
2017-03-07T03:23:31.826Z,1004.11
2017-03-07T03:24:12.362Z,1004.08
2017-03-07T03:24:52.891Z,1004.12
2017-03-07T03:25:33.413Z,1004.07
2017-03-07T03:26:13.937Z,1004.09
2017-03-07T03:26:54.472Z,1004.09
2017-03-07T03:27:35.006Z,1004.1
2017-03-07T03:28:15.553Z,1004.14
2017-03-07T03:28:56.067Z,1004.11
2017-03-07T03:29:36.585Z,1004.13
2017-03-07T03:30:17.115Z,1004.13
2017-03-07T03:30:57.647Z,1004.13
2017-03-07T03:31:38.177Z,1004.13
2017-03-07T03:32:18.708Z,1004.13
2017-03-07T03:32:59.237Z,1004.15
2017-03-07T03:33:39.775Z,1004.15
2017-03-07T03:34:20.311Z,1004.16
2017-03-07T03:35:00.853Z,1004.2
2017-03-07T03:35:41.397Z,1004.21
2017-03-07T03:36:21.921Z,1004.23
2017-03-07T03:37:02.459Z,1004.23
2017-03-07T03:37:42.984Z,1004.24
2017-03-07T03:38:23.511Z,1004.24
2017-03-07T03:39:04.046Z,1004.2
2017-03-07T03:39:44.571Z,1004.21
2017-03-07T03:40:25.101Z,1004.24
2017-03-07T03:41:05.628Z,1004.28
2017-03-07T03:41:46.162Z,1004.24
2017-03-07T03:42:26.698Z,1004.25
2017-03-07T03:43:07.224Z,1004.29
2017-03-07T03:43:47.760Z,1004.26
2017-03-07T03:44:28.292Z,1004.26
2017-03-07T03:45:08.825Z,1004.29
2017-03-07T03:45:49.355Z,1004.29
2017-03-07T03:46:29.877Z,1004.32
2017-03-07T03:47:10.416Z,1004.3
2017-03-07T03:47:50.944Z,1004.32
2017-03-07T03:48:31.478Z,1004.29
2017-03-07T03:49:12.013Z,1004.35
2017-03-07T03:49:52.547Z,1004.32
2017-03-07T03:50:33.077Z,1004.34
2017-03-07T03:51:13.607Z,1004.31
2017-03-07T03:51:54.135Z,1004.35
2017-03-07T03:52:34.671Z,1004.36
2017-03-07T03:53:15.203Z,1004.36
2017-03-07T03:53:55.731Z,1004.36
2017-03-07T03:54:36.260Z,1004.33
2017-03-07T03:55:16.794Z,1004.38
2017-03-07T03:55:57.340Z,1004.37
2017-03-07T03:56:37.872Z,1004.34
2017-03-07T03:57:18.404Z,1004.36
2017-03-07T03:57:58.930Z,1004.35
2017-03-07T03:58:39.464Z,1004.41
2017-03-07T03:59:19.991Z,1004.39
2017-03-07T04:00:00.535Z,1004.4
2017-03-07T04:00:41.072Z,1004.43
2017-03-07T04:01:21.603Z,1004.41
2017-03-07T04:02:02.137Z,1004.47
2017-03-07T04:02:42.669Z,1004.47
2017-03-07T04:03:23.198Z,1004.49
2017-03-07T04:04:03.733Z,1004.51
2017-03-07T04:04:44.265Z,1004.49
2017-03-07T04:05:24.794Z,1004.51
2017-03-07T04:06:05.322Z,1004.5
2017-03-07T04:06:45.856Z,1004.55
2017-03-07T04:07:26.388Z,1004.58
2017-03-07T04:08:06.932Z,1004.56
2017-03-07T04:08:47.463Z,1004.53
2017-03-07T04:09:27.985Z,1004.54
2017-03-07T04:10:08.512Z,1004.58
2017-03-07T04:10:49.042Z,1004.57
2017-03-07T04:11:29.577Z,1004.62
2017-03-07T04:12:10.106Z,1004.6
2017-03-07T04:12:50.629Z,1004.64
2017-03-07T04:13:31.155Z,1004.63
2017-03-07T04:14:11.687Z,1004.65
2017-03-07T04:14:52.219Z,1004.62
2017-03-07T04:15:32.753Z,1004.68
2017-03-07T04:16:13.284Z,1004.66
2017-03-07T04:16:53.815Z,1004.64
2017-03-07T04:17:34.342Z,1004.67
2017-03-07T04:18:14.873Z,1004.67
2017-03-07T04:18:55.396Z,1004.67
2017-03-07T04:19:35.928Z,1004.71
2017-03-07T04:20:16.455Z,1004.69
2017-03-07T04:20:56.995Z,1004.66
2017-03-07T04:21:37.527Z,1004.71
2017-03-07T04:22:18.061Z,1004.7
2017-03-07T04:22:58.593Z,1004.73
2017-03-07T04:23:39.126Z,1004.74
2017-03-07T04:24:19.660Z,1004.75
2017-03-07T04:25:00.192Z,1004.77
2017-03-07T04:25:40.726Z,1004.76
2017-03-07T04:26:21.252Z,1004.78
2017-03-07T04:27:01.782Z,1004.86
2017-03-07T04:27:42.314Z,1004.81
2017-03-07T04:28:22.844Z,1004.83
2017-03-07T04:29:03.376Z,1004.83
2017-03-07T04:29:43.900Z,1004.88
2017-03-07T04:30:24.433Z,1004.87
2017-03-07T04:31:04.960Z,1004.8
2017-03-07T04:31:45.498Z,1004.81
2017-03-07T04:32:26.015Z,1004.83
2017-03-07T04:33:06.542Z,1004.86
2017-03-07T04:33:47.075Z,1004.9
2017-03-07T04:34:27.603Z,1004.87
2017-03-07T04:35:08.131Z,1004.86
2017-03-07T04:35:48.664Z,1004.86
2017-03-07T04:36:29.187Z,1004.88
2017-03-07T04:37:09.718Z,1004.89
2017-03-07T04:37:50.250Z,1004.89
2017-03-07T04:38:30.783Z,1004.9
2017-03-07T04:39:11.308Z,1004.92
2017-03-07T04:39:51.838Z,1004.93
2017-03-07T04:40:32.407Z,1004.94
2017-03-07T04:41:12.937Z,1004.89
2017-03-07T04:41:53.466Z,1004.93
2017-03-07T04:42:34.001Z,1004.91
2017-03-07T04:43:14.538Z,1004.91
2017-03-07T04:43:55.061Z,1004.94
2017-03-07T04:44:35.591Z,1004.9
2017-03-07T04:45:16.124Z,1004.91
2017-03-07T04:45:56.657Z,1004.89
2017-03-07T04:46:37.191Z,1004.93
2017-03-07T04:47:17.728Z,1004.93
2017-03-07T04:47:58.261Z,1004.97
2017-03-07T04:48:38.788Z,1004.97
2017-03-07T04:49:19.321Z,1004.98
2017-03-07T04:49:59.887Z,1004.99
2017-03-07T04:50:40.418Z,1004.98
2017-03-07T04:51:20.944Z,1004.99
2017-03-07T04:52:01.470Z,1004.96
2017-03-07T04:52:42.007Z,1004.98
2017-03-07T04:53:22.541Z,1005
2017-03-07T04:54:03.076Z,1004.97
2017-03-07T04:54:43.612Z,1005.04
2017-03-07T04:55:24.147Z,1005
2017-03-07T04:56:04.684Z,1005.08
2017-03-07T04:56:45.213Z,1005.11
2017-03-07T04:57:25.743Z,1005.06
2017-03-07T04:58:06.279Z,1005.06
2017-03-07T04:58:46.814Z,1005.1
2017-03-07T04:59:27.349Z,1005.1
2017-03-07T05:00:07.878Z,1005.16
2017-03-07T05:00:48.412Z,1005.15
2017-03-07T05:01:28.940Z,1005.11
2017-03-07T05:02:09.475Z,1005.15
2017-03-07T05:02:50.011Z,1005.15
2017-03-07T05:03:30.549Z,1005.17
2017-03-07T05:04:11.074Z,1005.14
2017-03-07T05:04:51.609Z,1005.13
2017-03-07T05:05:32.141Z,1005.16
2017-03-07T05:06:12.673Z,1005.16
2017-03-07T05:06:53.207Z,1005.19
2017-03-07T05:07:33.729Z,1005.14
2017-03-07T05:08:14.276Z,1005.16
2017-03-07T05:08:54.791Z,1005.14
2017-03-07T05:09:35.328Z,1005.18
2017-03-07T05:10:15.857Z,1005.17
2017-03-07T05:10:56.383Z,1005.16
2017-03-07T05:11:36.921Z,1005.17
2017-03-07T05:12:17.455Z,1005.19
2017-03-07T05:12:57.988Z,1005.2
2017-03-07T05:13:38.523Z,1005.19
2017-03-07T05:14:19.059Z,1005.22
2017-03-07T05:14:59.591Z,1005.25
2017-03-07T05:15:40.119Z,1005.19
2017-03-07T05:16:20.654Z,1005.25
2017-03-07T05:17:01.191Z,1005.26
2017-03-07T05:17:41.727Z,1005.28
2017-03-07T05:18:22.265Z,1005.24
2017-03-07T05:19:02.799Z,1005.24
2017-03-07T05:19:43.333Z,1005.24
2017-03-07T05:20:23.847Z,1005.2
2017-03-07T05:21:04.379Z,1005.27
2017-03-07T05:21:44.913Z,1005.23
2017-03-07T05:22:25.437Z,1005.26
2017-03-07T05:23:05.966Z,1005.25
2017-03-07T05:23:46.502Z,1005.27
2017-03-07T05:24:27.033Z,1005.27
2017-03-07T05:25:07.559Z,1005.26
2017-03-07T05:25:48.061Z,1005.32
2017-03-07T05:26:28.596Z,1005.35
2017-03-07T05:27:09.124Z,1005.37
2017-03-07T05:27:49.655Z,1005.33
2017-03-07T05:28:30.187Z,1005.36
2017-03-07T05:29:10.726Z,1005.35
2017-03-07T05:29:51.248Z,1005.37
2017-03-07T05:30:31.897Z,1005.39
2017-03-07T05:31:12.318Z,1005.38
2017-03-07T05:31:52.843Z,1005.42
2017-03-07T05:32:33.378Z,1005.41
2017-03-07T05:33:13.904Z,1005.43
2017-03-07T05:33:54.446Z,1005.43
2017-03-07T05:34:34.979Z,1005.45
2017-03-07T05:35:15.514Z,1005.46
2017-03-07T05:35:56.046Z,1005.47
2017-03-07T05:36:36.577Z,1005.46
2017-03-07T05:37:17.114Z,1005.52
2017-03-07T05:37:57.647Z,1005.47
2017-03-07T05:38:38.174Z,1005.49
2017-03-07T05:39:18.710Z,1005.47
2017-03-07T05:39:59.243Z,1005.48
2017-03-07T05:40:39.759Z,1005.53
2017-03-07T05:41:20.295Z,1005.51
2017-03-07T05:42:00.825Z,1005.51
2017-03-07T05:42:41.359Z,1005.54
2017-03-07T05:43:21.890Z,1005.52
2017-03-07T05:44:02.430Z,1005.51
2017-03-07T05:44:42.960Z,1005.52
2017-03-07T05:45:23.488Z,1005.52
2017-03-07T05:46:04.021Z,1005.51
2017-03-07T05:46:44.548Z,1005.51
2017-03-07T05:47:25.228Z,1005.55
2017-03-07T05:48:05.783Z,1005.51
2017-03-07T05:48:46.278Z,1005.49
2017-03-07T05:49:26.807Z,1005.52
2017-03-07T05:50:07.329Z,1005.51
2017-03-07T05:50:47.858Z,1005.52
2017-03-07T05:51:28.391Z,1005.55
2017-03-07T05:52:08.923Z,1005.56
2017-03-07T05:52:49.456Z,1005.57
2017-03-07T05:53:29.994Z,1005.61
2017-03-07T05:54:10.531Z,1005.63
2017-03-07T05:54:51.059Z,1005.58
2017-03-07T05:55:31.592Z,1005.64
2017-03-07T05:56:12.123Z,1005.64
2017-03-07T05:56:52.656Z,1005.68
2017-03-07T05:57:33.188Z,1005.65
2017-03-07T05:58:13.714Z,1005.62
2017-03-07T05:58:54.251Z,1005.68
2017-03-07T05:59:34.785Z,1005.66
2017-03-07T06:00:15.314Z,1005.67
2017-03-07T06:00:55.842Z,1005.7
2017-03-07T06:01:36.376Z,1005.71
2017-03-07T06:02:16.910Z,1005.72
2017-03-07T06:02:57.444Z,1005.73
2017-03-07T06:03:37.972Z,1005.74
2017-03-07T06:04:18.506Z,1005.76
2017-03-07T06:04:59.103Z,1005.73
2017-03-07T06:05:39.626Z,1005.75
2017-03-07T06:06:20.158Z,1005.75
2017-03-07T06:07:00.691Z,1005.76
2017-03-07T06:07:41.216Z,1005.78
2017-03-07T06:08:21.759Z,1005.79
2017-03-07T06:09:02.281Z,1005.81
2017-03-07T06:09:42.805Z,1005.83
2017-03-07T06:10:23.345Z,1005.84
2017-03-07T06:11:03.872Z,1005.86
2017-03-07T06:11:44.399Z,1005.86
2017-03-07T06:12:24.936Z,1005.86
2017-03-07T06:13:05.467Z,1005.89
2017-03-07T06:13:45.990Z,1005.91
2017-03-07T06:14:26.519Z,1005.91
2017-03-07T06:15:07.051Z,1005.89
2017-03-07T06:15:47.572Z,1005.91
2017-03-07T06:16:28.115Z,1005.96
2017-03-07T06:17:08.655Z,1005.96
2017-03-07T06:17:49.185Z,1005.93
2017-03-07T06:18:29.739Z,1005.95
2017-03-07T06:19:10.273Z,1005.99
2017-03-07T06:19:50.805Z,1005.99
2017-03-07T06:20:31.329Z,1005.99
2017-03-07T06:21:11.862Z,1006.04
2017-03-07T06:21:52.391Z,1006.04
2017-03-07T06:22:32.919Z,1006.04
2017-03-07T06:23:13.450Z,1006.06
2017-03-07T06:23:53.990Z,1006.05
2017-03-07T06:24:34.520Z,1006.04
2017-03-07T06:25:15.053Z,1006.06
2017-03-07T06:25:55.582Z,1006.06
2017-03-07T06:26:36.119Z,1006.06
2017-03-07T06:27:16.650Z,1006.06
2017-03-07T06:27:57.180Z,1006.08
2017-03-07T06:28:37.720Z,1006.09
2017-03-07T06:29:18.255Z,1006.09
2017-03-07T06:29:58.786Z,1006.11
2017-03-07T06:30:39.323Z,1006.11
2017-03-07T06:31:19.854Z,1006.1
2017-03-07T06:32:00.382Z,1006.17
2017-03-07T06:32:40.921Z,1006.14
2017-03-07T06:33:21.456Z,1006.1
2017-03-07T06:34:01.987Z,1006.14
2017-03-07T06:34:42.523Z,1006.18
2017-03-07T06:35:23.058Z,1006.16
2017-03-07T06:36:03.595Z,1006.21
2017-03-07T06:36:44.129Z,1006.2
2017-03-07T06:37:24.682Z,1006.22
2017-03-07T06:38:05.199Z,1006.21
2017-03-07T06:38:45.732Z,1006.23
2017-03-07T06:39:26.270Z,1006.23
2017-03-07T06:40:06.798Z,1006.25
2017-03-07T06:40:47.333Z,1006.27
2017-03-07T06:41:27.865Z,1006.3
2017-03-07T06:42:08.401Z,1006.3
2017-03-07T06:42:48.930Z,1006.28
2017-03-07T06:43:29.471Z,1006.32
2017-03-07T06:44:10.009Z,1006.31
2017-03-07T06:44:50.544Z,1006.29
2017-03-07T06:45:31.078Z,1006.32
2017-03-07T06:46:11.602Z,1006.35
2017-03-07T06:46:52.125Z,1006.33
2017-03-07T06:47:32.659Z,1006.36
2017-03-07T06:48:13.192Z,1006.37
2017-03-07T06:48:53.737Z,1006.41
2017-03-07T06:49:34.274Z,1006.39
2017-03-07T06:50:14.799Z,1006.4
2017-03-07T06:50:55.337Z,1006.36
2017-03-07T06:51:35.961Z,1006.41
2017-03-07T06:52:16.684Z,1006.38
2017-03-07T06:52:57.218Z,1006.4
2017-03-07T06:53:37.740Z,1006.38
2017-03-07T06:54:18.278Z,1006.38
2017-03-07T06:54:58.816Z,1006.41
2017-03-07T06:55:39.348Z,1006.41
2017-03-07T06:56:19.881Z,1006.44
2017-03-07T06:57:00.409Z,1006.44
2017-03-07T06:57:40.946Z,1006.4
2017-03-07T06:58:21.471Z,1006.43
2017-03-07T06:59:02.002Z,1006.46
2017-03-07T06:59:42.537Z,1006.49
2017-03-07T07:00:23.064Z,1006.46
2017-03-07T07:01:03.604Z,1006.46
2017-03-07T07:01:44.132Z,1006.49
2017-03-07T07:02:24.669Z,1006.44
2017-03-07T07:03:05.204Z,1006.48
2017-03-07T07:03:45.732Z,1006.53
2017-03-07T07:04:26.263Z,1006.53
2017-03-07T07:05:06.794Z,1006.49
2017-03-07T07:05:47.327Z,1006.52
2017-03-07T07:06:27.871Z,1006.47
2017-03-07T07:07:08.396Z,1006.55
2017-03-07T07:07:48.910Z,1006.52
2017-03-07T07:08:29.432Z,1006.54
2017-03-07T07:09:09.963Z,1006.55
2017-03-07T07:09:50.503Z,1006.57
2017-03-07T07:10:31.027Z,1006.6
2017-03-07T07:11:11.553Z,1006.63
2017-03-07T07:11:52.084Z,1006.63
2017-03-07T07:12:32.589Z,1006.7
2017-03-07T07:13:13.122Z,1006.66
2017-03-07T07:13:53.652Z,1006.7
2017-03-07T07:14:34.191Z,1006.67
2017-03-07T07:15:14.724Z,1006.76
2017-03-07T07:15:55.261Z,1006.76
2017-03-07T07:16:35.792Z,1006.79
2017-03-07T07:17:16.322Z,1006.8
2017-03-07T07:17:56.857Z,1006.77
2017-03-07T07:18:37.392Z,1006.81
2017-03-07T07:19:17.924Z,1006.81
2017-03-07T07:19:58.456Z,1006.8
2017-03-07T07:20:38.993Z,1006.83
2017-03-07T07:21:19.523Z,1006.86
2017-03-07T07:22:00.054Z,1006.86
2017-03-07T07:22:40.588Z,1006.86
2017-03-07T07:23:21.128Z,1006.87
2017-03-07T07:24:01.660Z,1006.91
2017-03-07T07:24:42.181Z,1006.88
2017-03-07T07:25:22.718Z,1006.89
2017-03-07T07:26:03.249Z,1006.9
2017-03-07T07:26:43.783Z,1006.88
2017-03-07T07:27:24.319Z,1006.9
2017-03-07T07:28:04.849Z,1006.91
2017-03-07T07:28:45.377Z,1006.91
2017-03-07T07:29:25.911Z,1006.95
2017-03-07T07:30:06.443Z,1006.94
2017-03-07T07:30:46.978Z,1006.95
2017-03-07T07:31:27.508Z,1006.97
2017-03-07T07:32:08.036Z,1006.96
2017-03-07T07:32:48.564Z,1007
2017-03-07T07:33:29.092Z,1007.02
2017-03-07T07:34:09.625Z,1007.08
2017-03-07T07:34:50.157Z,1007.07
2017-03-07T07:35:30.684Z,1007.1
2017-03-07T07:36:11.232Z,1007.1
2017-03-07T07:36:51.745Z,1007.09
2017-03-07T07:37:32.277Z,1007.08
2017-03-07T07:38:12.812Z,1007.16
2017-03-07T07:38:53.344Z,1007.14
2017-03-07T07:39:33.881Z,1007.16
2017-03-07T07:40:14.413Z,1007.18
2017-03-07T07:40:54.937Z,1007.18
2017-03-07T07:41:35.469Z,1007.19
2017-03-07T07:42:16.003Z,1007.2
2017-03-07T07:42:56.534Z,1007.17
2017-03-07T07:43:37.068Z,1007.19
2017-03-07T07:44:17.595Z,1007.17
2017-03-07T07:44:58.129Z,1007.24
2017-03-07T07:45:38.662Z,1007.25
2017-03-07T07:46:19.190Z,1007.2
2017-03-07T07:46:59.727Z,1007.25
2017-03-07T07:47:40.258Z,1007.28
2017-03-07T07:48:20.797Z,1007.25
2017-03-07T07:49:01.331Z,1007.22
2017-03-07T07:49:41.866Z,1007.27
2017-03-07T07:50:22.406Z,1007.26
2017-03-07T07:51:02.960Z,1007.26
2017-03-07T07:51:43.492Z,1007.23
2017-03-07T07:52:24.022Z,1007.26
2017-03-07T07:53:04.561Z,1007.26
2017-03-07T07:53:45.091Z,1007.3
2017-03-07T07:54:25.624Z,1007.29
2017-03-07T07:55:06.148Z,1007.29
2017-03-07T07:55:46.676Z,1007.3
2017-03-07T07:56:27.214Z,1007.33
2017-03-07T07:57:07.752Z,1007.31
2017-03-07T07:57:48.291Z,1007.33
2017-03-07T07:58:28.823Z,1007.35
2017-03-07T07:59:09.356Z,1007.32
2017-03-07T07:59:49.891Z,1007.31
2017-03-07T08:00:30.419Z,1007.32
2017-03-07T08:01:10.954Z,1007.36
2017-03-07T08:01:51.491Z,1007.34
2017-03-07T08:02:32.024Z,1007.36
2017-03-07T08:03:12.553Z,1007.33
2017-03-07T08:03:53.085Z,1007.37
2017-03-07T08:04:33.618Z,1007.39
2017-03-07T08:05:14.153Z,1007.36
2017-03-07T08:05:54.686Z,1007.39
2017-03-07T08:06:35.224Z,1007.42
2017-03-07T08:07:15.763Z,1007.44
2017-03-07T08:07:56.293Z,1007.43
2017-03-07T08:08:36.823Z,1007.47
2017-03-07T08:09:17.360Z,1007.49
2017-03-07T08:09:57.897Z,1007.47
2017-03-07T08:10:38.432Z,1007.49
2017-03-07T08:11:18.957Z,1007.5
2017-03-07T08:11:59.491Z,1007.49
2017-03-07T08:12:40.024Z,1007.51
2017-03-07T08:13:20.558Z,1007.52
2017-03-07T08:14:01.092Z,1007.52
2017-03-07T08:14:41.656Z,1007.55
2017-03-07T08:15:22.157Z,1007.55
2017-03-07T08:16:02.688Z,1007.57
2017-03-07T08:16:43.217Z,1007.57
2017-03-07T08:17:23.760Z,1007.64
2017-03-07T08:18:04.295Z,1007.58
2017-03-07T08:18:44.832Z,1007.63
2017-03-07T08:19:25.359Z,1007.62
2017-03-07T08:20:05.893Z,1007.67
2017-03-07T08:20:46.425Z,1007.65
2017-03-07T08:21:26.958Z,1007.66
2017-03-07T08:22:07.499Z,1007.69
2017-03-07T08:22:48.035Z,1007.66
2017-03-07T08:23:28.577Z,1007.74
2017-03-07T08:24:09.111Z,1007.69
2017-03-07T08:24:49.639Z,1007.68
2017-03-07T08:25:30.174Z,1007.75
2017-03-07T08:26:10.711Z,1007.74
2017-03-07T08:26:51.245Z,1007.73
2017-03-07T08:27:31.773Z,1007.77
2017-03-07T08:28:12.304Z,1007.77
2017-03-07T08:28:52.836Z,1007.76
2017-03-07T08:29:33.371Z,1007.78
2017-03-07T08:30:13.904Z,1007.78
2017-03-07T08:30:54.424Z,1007.76
2017-03-07T08:31:34.954Z,1007.76
2017-03-07T08:32:15.487Z,1007.75
2017-03-07T08:32:56.032Z,1007.75
2017-03-07T08:33:36.566Z,1007.75
2017-03-07T08:34:17.098Z,1007.75
2017-03-07T08:34:57.627Z,1007.78
2017-03-07T08:35:38.165Z,1007.79
2017-03-07T08:36:18.695Z,1007.72
2017-03-07T08:36:59.240Z,1007.75
2017-03-07T08:37:39.767Z,1007.73
2017-03-07T08:38:20.302Z,1007.73
2017-03-07T08:39:00.835Z,1007.76
2017-03-07T08:39:41.370Z,1007.74
2017-03-07T08:40:21.895Z,1007.77
2017-03-07T08:41:02.467Z,1007.73
2017-03-07T08:41:43.000Z,1007.75
2017-03-07T08:42:23.540Z,1007.75
2017-03-07T08:43:04.071Z,1007.73
2017-03-07T08:43:44.607Z,1007.76
2017-03-07T08:44:25.128Z,1007.76
2017-03-07T08:45:05.659Z,1007.78
2017-03-07T08:45:46.193Z,1007.75
2017-03-07T08:46:26.729Z,1007.77
2017-03-07T08:47:07.265Z,1007.75
2017-03-07T08:47:47.804Z,1007.77
2017-03-07T08:48:28.314Z,1007.76
2017-03-07T08:49:08.840Z,1007.76
2017-03-07T08:49:49.375Z,1007.77